sensor_id;sensor_type;location;lat;lon;timestamp;temperature;humidity
12223;DHT22;6174;49.058;8.524;2023-05-07T06:01:18;15.60;99.90
12223;DHT22;6174;49.058;8.524;2023-05-07T06:03:45;15.80;99.90
12223;DHT22;6174;49.058;8.524;2023-05-07T06:06:12;15.90;99.90
12223;DHT22;6174;49.058;8.524;2023-05-07T06:08:40;16.00;99.90
12223;DHT22;6174;49.058;8.524;2023-05-07T06:11:07;16.00;99.90
12223;DHT22;6174;49.058;8.524;2023-05-07T06:13:33;16.10;99.90
12223;DHT22;6174;49.058;8.524;2023-05-07T06:16:00;16.20;99.90
12223;DHT22;6174;49.058;8.524;2023-05-07T06:18:28;16.30;99.90
12223;DHT22;6174;49.058;8.524;2023-05-07T06:20:55;16.30;99.90
12223;DHT22;6174;49.058;8.524;2023-05-07T06:23:21;16.50;99.90
12223;DHT22;6174;49.058;8.524;2023-05-07T06:25:49;16.60;99.90
12223;DHT22;6174;49.058;8.524;2023-05-07T06:28:15;16.80;99.90
12223;DHT22;6174;49.058;8.524;2023-05-07T06:30:42;16.90;99.90
12223;DHT22;6174;49.058;8.524;2023-05-07T06:33:09;17.00;99.90
12223;DHT22;6174;49.058;8.524;2023-05-07T06:35:37;17.10;99.90
12223;DHT22;6174;49.058;8.524;2023-05-07T06:38:04;17.30;99.90
12223;DHT22;6174;49.058;8.524;2023-05-07T06:40:31;17.50;99.90
12223;DHT22;6174;49.058;8.524;2023-05-07T06:42:58;17.70;99.90
12223;DHT22;6174;49.058;8.524;2023-05-07T06:45:24;17.70;99.90
12223;DHT22;6174;49.058;8.524;2023-05-07T06:47:51;17.70;99.90
12223;DHT22;6174;49.058;8.524;2023-05-07T06:50:18;17.70;99.90
12223;DHT22;6174;49.058;8.524;2023-05-07T06:52:46;17.80;99.90
12223;DHT22;6174;49.058;8.524;2023-05-07T06:55:13;17.90;99.90
12223;DHT22;6174;49.058;8.524;2023-05-07T06:57:40;18.20;99.90
12223;DHT22;6174;49.058;8.524;2023-05-07T07:00:08;18.20;99.90
12223;DHT22;6174;49.058;8.524;2023-05-07T07:02:35;18.80;99.90
12223;DHT22;6174;49.058;8.524;2023-05-07T07:05:03;18.20;99.90
12223;DHT22;6174;49.058;8.524;2023-05-07T07:07:30;18.00;99.90
12223;DHT22;6174;49.058;8.524;2023-05-07T07:09:58;18.80;99.90
12223;DHT22;6174;49.058;8.524;2023-05-07T07:12:25;19.10;99.90
12223;DHT22;6174;49.058;8.524;2023-05-07T07:14:52;19.00;99.90
12223;DHT22;6174;49.058;8.524;2023-05-07T07:17:19;19.20;99.90
12223;DHT22;6174;49.058;8.524;2023-05-07T07:19:45;19.90;99.90
12223;DHT22;6174;49.058;8.524;2023-05-07T07:22:12;20.10;99.90
12223;DHT22;6174;49.058;8.524;2023-05-07T07:24:39;20.50;98.30
12223;DHT22;6174;49.058;8.524;2023-05-07T07:27:07;20.90;97.10
12223;DHT22;6174;49.058;8.524;2023-05-07T07:29:34;21.20;96.50
12223;DHT22;6174;49.058;8.524;2023-05-07T07:32:01;21.20;95.70
12223;DHT22;6174;49.058;8.524;2023-05-07T07:34:28;21.50;94.80
12223;DHT22;6174;49.058;8.524;2023-05-07T07:36:55;21.10;93.60
12223;DHT22;6174;49.058;8.524;2023-05-07T07:39:22;20.50;95.50
12223;DHT22;6174;49.058;8.524;2023-05-07T07:41:49;20.30;96.30
12223;DHT22;6174;49.058;8.524;2023-05-07T07:44:17;20.10;96.60
12223;DHT22;6174;49.058;8.524;2023-05-07T07:46:44;19.80;97.10
12223;DHT22;6174;49.058;8.524;2023-05-07T07:49:11;20.60;97.20
12223;DHT22;6174;49.058;8.524;2023-05-07T07:51:38;20.40;96.80
12223;DHT22;6174;49.058;8.524;2023-05-07T07:54:05;20.50;95.40
12223;DHT22;6174;49.058;8.524;2023-05-07T07:56:32;20.70;95.00
12223;DHT22;6174;49.058;8.524;2023-05-07T07:58:59;21.00;95.60
12223;DHT22;6174;49.058;8.524;2023-05-07T08:01:30;20.80;95.90
12223;DHT22;6174;49.058;8.524;2023-05-07T08:03:57;20.50;94.60
12223;DHT22;6174;49.058;8.524;2023-05-07T08:06:24;21.10;95.50
12223;DHT22;6174;49.058;8.524;2023-05-07T08:08:51;20.60;95.30
12223;DHT22;6174;49.058;8.524;2023-05-07T08:11:18;20.70;95.70
12223;DHT22;6174;49.058;8.524;2023-05-07T08:13:46;21.40;95.90
12223;DHT22;6174;49.058;8.524;2023-05-07T08:16:13;20.90;96.40
12223;DHT22;6174;49.058;8.524;2023-05-07T08:18:41;21.00;95.40
12223;DHT22;6174;49.058;8.524;2023-05-07T08:21:08;21.70;94.90
12223;DHT22;6174;49.058;8.524;2023-05-07T08:23:35;21.20;94.10
12223;DHT22;6174;49.058;8.524;2023-05-07T08:26:02;21.30;93.70
12223;DHT22;6174;49.058;8.524;2023-05-07T08:28:29;21.50;95.20
12223;DHT22;6174;49.058;8.524;2023-05-07T08:30:56;22.20;94.20
12223;DHT22;6174;49.058;8.524;2023-05-07T08:33:25;21.60;93.10
12223;DHT22;6174;49.058;8.524;2023-05-07T08:35:53;21.70;92.90
12223;DHT22;6174;49.058;8.524;2023-05-07T08:38:20;21.80;93.20
12223;DHT22;6174;49.058;8.524;2023-05-07T08:40:46;21.70;93.90
12223;DHT22;6174;49.058;8.524;2023-05-07T08:43:14;21.60;93.90
12223;DHT22;6174;49.058;8.524;2023-05-07T08:45:41;21.40;93.80
12223;DHT22;6174;49.058;8.524;2023-05-07T08:48:10;21.40;94.80
12223;DHT22;6174;49.058;8.524;2023-05-07T08:50:40;21.30;95.10
12223;DHT22;6174;49.058;8.524;2023-05-07T08:53:09;21.20;95.60
12223;DHT22;6174;49.058;8.524;2023-05-07T08:55:36;21.40;95.60
12223;DHT22;6174;49.058;8.524;2023-05-07T08:58:03;21.40;95.40
12223;DHT22;6174;49.058;8.524;2023-05-07T09:00:30;21.10;94.40
12223;DHT22;6174;49.058;8.524;2023-05-07T09:02:59;21.10;94.90
12223;DHT22;6174;49.058;8.524;2023-05-07T09:05:26;21.10;95.20
12223;DHT22;6174;49.058;8.524;2023-05-07T09:07:53;20.90;94.40
12223;DHT22;6174;49.058;8.524;2023-05-07T09:10:22;20.70;95.40
12223;DHT22;6174;49.058;8.524;2023-05-07T09:12:51;21.30;96.00
12223;DHT22;6174;49.058;8.524;2023-05-07T09:15:18;20.70;96.30
12223;DHT22;6174;49.058;8.524;2023-05-07T09:17:45;20.80;95.80
12223;DHT22;6174;49.058;8.524;2023-05-07T09:20:13;21.00;95.30
12223;DHT22;6174;49.058;8.524;2023-05-07T09:22:39;21.00;95.60
12223;DHT22;6174;49.058;8.524;2023-05-07T09:25:07;21.00;95.60
12223;DHT22;6174;49.058;8.524;2023-05-07T09:27:36;21.10;95.90
12223;DHT22;6174;49.058;8.524;2023-05-07T09:30:06;21.00;94.60
12223;DHT22;6174;49.058;8.524;2023-05-07T09:32:35;20.90;94.90
12223;DHT22;6174;49.058;8.524;2023-05-07T09:35:04;21.00;95.90
12223;DHT22;6174;49.058;8.524;2023-05-07T09:37:31;21.00;95.60
12223;DHT22;6174;49.058;8.524;2023-05-07T09:39:58;21.10;96.10
12223;DHT22;6174;49.058;8.524;2023-05-07T09:42:25;21.30;95.50
12223;DHT22;6174;49.058;8.524;2023-05-07T09:44:53;21.50;94.00
12223;DHT22;6174;49.058;8.524;2023-05-07T09:47:24;21.60;93.50
12223;DHT22;6174;49.058;8.524;2023-05-07T09:49:54;21.80;93.80
12223;DHT22;6174;49.058;8.524;2023-05-07T09:52:23;21.70;94.50
12223;DHT22;6174;49.058;8.524;2023-05-07T09:54:50;21.50;93.50
12223;DHT22;6174;49.058;8.524;2023-05-07T09:57:19;21.50;93.80
12223;DHT22;6174;49.058;8.524;2023-05-07T09:59:47;21.50;93.90
12223;DHT22;6174;49.058;8.524;2023-05-07T10:02:17;21.70;95.60
12223;DHT22;6174;49.058;8.524;2023-05-07T10:04:46;21.80;93.90
12223;DHT22;6174;49.058;8.524;2023-05-07T10:07:14;21.80;93.50
12223;DHT22;6174;49.058;8.524;2023-05-07T10:09:42;21.70;93.30
12223;DHT22;6174;49.058;8.524;2023-05-07T10:12:10;21.80;94.40
12223;DHT22;6174;49.058;8.524;2023-05-07T10:14:37;22.00;95.00
12223;DHT22;6174;49.058;8.524;2023-05-07T10:17:04;22.10;93.70
12223;DHT22;6174;49.058;8.524;2023-05-07T10:19:34;22.20;94.20
12223;DHT22;6174;49.058;8.524;2023-05-07T10:22:05;22.10;92.90
12223;DHT22;6174;49.058;8.524;2023-05-07T10:24:33;22.20;94.30
12223;DHT22;6174;49.058;8.524;2023-05-07T10:27:02;22.30;93.80
12223;DHT22;6174;49.058;8.524;2023-05-07T10:29:35;22.30;92.70
12223;DHT22;6174;49.058;8.524;2023-05-07T10:32:14;22.20;93.70
12223;DHT22;6174;49.058;8.524;2023-05-07T10:34:49;22.10;93.20
12223;DHT22;6174;49.058;8.524;2023-05-07T10:37:17;22.20;93.50
12223;DHT22;6174;49.058;8.524;2023-05-07T10:39:44;22.10;94.20
12223;DHT22;6174;49.058;8.524;2023-05-07T10:42:12;22.10;93.00
12223;DHT22;6174;49.058;8.524;2023-05-07T10:44:39;22.10;93.80
12223;DHT22;6174;49.058;8.524;2023-05-07T10:47:08;22.20;93.80
12223;DHT22;6174;49.058;8.524;2023-05-07T10:49:36;22.30;93.90
12223;DHT22;6174;49.058;8.524;2023-05-07T10:52:14;22.30;93.10
12223;DHT22;6174;49.058;8.524;2023-05-07T10:54:42;22.40;92.90
12223;DHT22;6174;49.058;8.524;2023-05-07T10:57:34;22.40;92.60
12223;DHT22;6174;49.058;8.524;2023-05-07T11:00:05;22.60;93.70
12223;DHT22;6174;49.058;8.524;2023-05-07T11:03:09;22.60;92.70
12223;DHT22;6174;49.058;8.524;2023-05-07T11:06:08;22.80;91.80
12223;DHT22;6174;49.058;8.524;2023-05-07T11:08:54;22.80;91.50
12223;DHT22;6174;49.058;8.524;2023-05-07T11:11:44;22.80;93.00
12223;DHT22;6174;49.058;8.524;2023-05-07T11:14:11;23.00;92.60
12223;DHT22;6174;49.058;8.524;2023-05-07T11:16:40;23.10;91.40
12223;DHT22;6174;49.058;8.524;2023-05-07T11:19:08;23.00;90.90
12223;DHT22;6174;49.058;8.524;2023-05-07T11:21:36;22.80;90.50
12223;DHT22;6174;49.058;8.524;2023-05-07T11:24:05;22.90;91.00
12223;DHT22;6174;49.058;8.524;2023-05-07T11:26:42;23.10;91.00
12223;DHT22;6174;49.058;8.524;2023-05-07T11:29:14;23.00;91.30
12223;DHT22;6174;49.058;8.524;2023-05-07T11:31:41;23.10;91.20
12223;DHT22;6174;49.058;8.524;2023-05-07T11:34:08;23.10;91.50
12223;DHT22;6174;49.058;8.524;2023-05-07T11:36:41;23.10;90.10
12223;DHT22;6174;49.058;8.524;2023-05-07T11:39:26;23.10;90.40
12223;DHT22;6174;49.058;8.524;2023-05-07T11:41:53;22.90;91.20
12223;DHT22;6174;49.058;8.524;2023-05-07T11:44:20;23.00;92.20
12223;DHT22;6174;49.058;8.524;2023-05-07T11:46:46;23.00;91.10
12223;DHT22;6174;49.058;8.524;2023-05-07T11:49:13;23.10;91.20
12223;DHT22;6174;49.058;8.524;2023-05-07T11:51:40;23.00;91.20
12223;DHT22;6174;49.058;8.524;2023-05-07T11:54:08;23.20;91.20
12223;DHT22;6174;49.058;8.524;2023-05-07T11:56:38;23.10;91.30
12223;DHT22;6174;49.058;8.524;2023-05-07T11:59:05;23.10;91.60
12223;DHT22;6174;49.058;8.524;2023-05-07T12:01:32;23.10;91.00
12223;DHT22;6174;49.058;8.524;2023-05-07T12:03:58;23.00;91.00
12223;DHT22;6174;49.058;8.524;2023-05-07T12:06:29;23.00;91.60
12223;DHT22;6174;49.058;8.524;2023-05-07T12:08:56;23.00;91.60
12223;DHT22;6174;49.058;8.524;2023-05-07T12:11:24;23.10;90.60
12223;DHT22;6174;49.058;8.524;2023-05-07T12:13:54;23.30;91.50
12223;DHT22;6174;49.058;8.524;2023-05-07T12:16:21;23.40;90.40
12223;DHT22;6174;49.058;8.524;2023-05-07T12:18:48;23.50;91.30
12223;DHT22;6174;49.058;8.524;2023-05-07T12:21:18;23.70;91.90
12223;DHT22;6174;49.058;8.524;2023-05-07T12:23:45;23.60;90.80
12223;DHT22;6174;49.058;8.524;2023-05-07T12:26:12;23.60;90.30
12223;DHT22;6174;49.058;8.524;2023-05-07T12:28:39;23.40;90.50
12223;DHT22;6174;49.058;8.524;2023-05-07T12:31:07;23.40;89.40
12223;DHT22;6174;49.058;8.524;2023-05-07T12:33:35;23.40;90.40
12223;DHT22;6174;49.058;8.524;2023-05-07T12:36:06;23.40;90.10
12223;DHT22;6174;49.058;8.524;2023-05-07T12:38:38;23.50;90.80
12223;DHT22;6174;49.058;8.524;2023-05-07T12:41:06;23.60;88.70
12223;DHT22;6174;49.058;8.524;2023-05-07T12:43:33;23.70;89.20
12223;DHT22;6174;49.058;8.524;2023-05-07T12:46:06;23.60;88.60
12223;DHT22;6174;49.058;8.524;2023-05-07T12:48:36;23.60;88.40
12223;DHT22;6174;49.058;8.524;2023-05-07T12:51:03;23.60;88.30
12223;DHT22;6174;49.058;8.524;2023-05-07T12:53:31;23.60;87.20
12223;DHT22;6174;49.058;8.524;2023-05-07T12:55:59;23.50;88.60
12223;DHT22;6174;49.058;8.524;2023-05-07T12:58:27;23.40;90.10
12223;DHT22;6174;49.058;8.524;2023-05-07T13:00:55;23.40;90.20
12223;DHT22;6174;49.058;8.524;2023-05-07T13:03:25;23.40;89.20
12223;DHT22;6174;49.058;8.524;2023-05-07T13:05:55;23.30;87.90
12223;DHT22;6174;49.058;8.524;2023-05-07T13:08:30;23.40;89.20
12223;DHT22;6174;49.058;8.524;2023-05-07T13:10:58;23.40;86.60
12223;DHT22;6174;49.058;8.524;2023-05-07T13:13:25;23.40;86.90
12223;DHT22;6174;49.058;8.524;2023-05-07T13:15:51;23.40;86.40
12223;DHT22;6174;49.058;8.524;2023-05-07T13:18:18;23.40;87.90
12223;DHT22;6174;49.058;8.524;2023-05-07T13:20:45;23.30;87.40
12223;DHT22;6174;49.058;8.524;2023-05-07T13:23:13;23.40;87.60
12223;DHT22;6174;49.058;8.524;2023-05-07T13:25:40;23.40;87.40
12223;DHT22;6174;49.058;8.524;2023-05-07T13:28:07;23.30;88.30
12223;DHT22;6174;49.058;8.524;2023-05-07T13:30:33;23.30;88.30
12223;DHT22;6174;49.058;8.524;2023-05-07T13:33:00;23.30;87.00
12223;DHT22;6174;49.058;8.524;2023-05-07T13:35:27;23.30;88.00
12223;DHT22;6174;49.058;8.524;2023-05-07T13:37:54;23.30;87.70
12223;DHT22;6174;49.058;8.524;2023-05-07T13:40:22;23.30;87.10
12223;DHT22;6174;49.058;8.524;2023-05-07T13:42:50;23.20;80.20
12223;DHT22;6174;49.058;8.524;2023-05-07T13:45:17;23.00;75.30
12223;DHT22;6174;49.058;8.524;2023-05-07T13:47:44;22.50;76.10
12223;DHT22;6174;49.058;8.524;2023-05-07T13:50:11;22.10;79.20
12223;DHT22;6174;49.058;8.524;2023-05-07T13:52:41;21.80;80.90
12223;DHT22;6174;49.058;8.524;2023-05-07T13:55:08;21.30;84.80
12223;DHT22;6174;49.058;8.524;2023-05-07T13:57:37;20.20;86.80
12223;DHT22;6174;49.058;8.524;2023-05-07T14:00:05;19.40;88.70
12223;DHT22;6174;49.058;8.524;2023-05-07T14:02:32;19.10;87.90
12223;DHT22;6174;49.058;8.524;2023-05-07T14:04:59;19.10;86.30
12223;DHT22;6174;49.058;8.524;2023-05-07T14:07:26;19.20;83.90
12223;DHT22;6174;49.058;8.524;2023-05-07T14:09:54;19.30;83.70
12223;DHT22;6174;49.058;8.524;2023-05-07T14:12:21;19.40;84.50
12223;DHT22;6174;49.058;8.524;2023-05-07T14:14:49;19.40;85.70
12223;DHT22;6174;49.058;8.524;2023-05-07T14:17:16;19.40;87.10
12223;DHT22;6174;49.058;8.524;2023-05-07T14:19:43;19.30;88.50
12223;DHT22;6174;49.058;8.524;2023-05-07T14:22:10;19.30;89.40
12223;DHT22;6174;49.058;8.524;2023-05-07T14:24:38;19.20;90.00
12223;DHT22;6174;49.058;8.524;2023-05-07T14:27:05;19.00;90.70
12223;DHT22;6174;49.058;8.524;2023-05-07T14:29:32;18.70;91.80
12223;DHT22;6174;49.058;8.524;2023-05-07T14:32:02;18.70;92.80
12223;DHT22;6174;49.058;8.524;2023-05-07T14:34:29;18.60;93.60
12223;DHT22;6174;49.058;8.524;2023-05-07T14:36:56;18.50;94.60
12223;DHT22;6174;49.058;8.524;2023-05-07T14:39:23;18.40;95.70
12223;DHT22;6174;49.058;8.524;2023-05-07T14:41:50;18.30;96.90
12223;DHT22;6174;49.058;8.524;2023-05-07T14:44:20;18.20;98.10
12223;DHT22;6174;49.058;8.524;2023-05-07T14:46:46;18.20;99.40
12223;DHT22;6174;49.058;8.524;2023-05-07T14:49:15;18.10;99.90
12223;DHT22;6174;49.058;8.524;2023-05-07T14:51:43;18.00;99.90
12223;DHT22;6174;49.058;8.524;2023-05-07T14:54:10;18.10;99.90
12223;DHT22;6174;49.058;8.524;2023-05-07T14:56:37;18.10;99.90
12223;DHT22;6174;49.058;8.524;2023-05-07T14:59:04;18.20;99.90
12223;DHT22;6174;49.058;8.524;2023-05-07T15:01:31;18.20;99.90
12223;DHT22;6174;49.058;8.524;2023-05-07T15:03:58;18.20;99.90
12223;DHT22;6174;49.058;8.524;2023-05-07T15:06:27;18.20;99.90
12223;DHT22;6174;49.058;8.524;2023-05-07T15:08:54;18.20;99.90
12223;DHT22;6174;49.058;8.524;2023-05-07T15:11:22;18.30;99.90
12223;DHT22;6174;49.058;8.524;2023-05-07T15:13:49;18.30;99.90
12223;DHT22;6174;49.058;8.524;2023-05-07T15:16:16;18.30;99.90
12223;DHT22;6174;49.058;8.524;2023-05-07T15:18:42;18.40;99.90
12223;DHT22;6174;49.058;8.524;2023-05-07T15:21:09;18.40;99.90
12223;DHT22;6174;49.058;8.524;2023-05-07T15:23:38;18.50;99.90
12223;DHT22;6174;49.058;8.524;2023-05-07T15:26:06;18.60;99.90
12223;DHT22;6174;49.058;8.524;2023-05-07T15:28:33;18.60;99.90
12223;DHT22;6174;49.058;8.524;2023-05-07T15:31:00;18.60;99.90
12223;DHT22;6174;49.058;8.524;2023-05-07T15:33:27;18.60;99.90
12223;DHT22;6174;49.058;8.524;2023-05-07T15:35:54;18.70;99.90
12223;DHT22;6174;49.058;8.524;2023-05-07T15:38:24;18.70;99.90
12223;DHT22;6174;49.058;8.524;2023-05-07T15:40:52;18.70;99.90
12223;DHT22;6174;49.058;8.524;2023-05-07T15:43:20;18.70;99.90
12223;DHT22;6174;49.058;8.524;2023-05-07T15:45:47;18.70;99.90
12223;DHT22;6174;49.058;8.524;2023-05-07T15:48:14;18.60;99.90
12223;DHT22;6174;49.058;8.524;2023-05-07T15:50:41;18.70;99.90
12223;DHT22;6174;49.058;8.524;2023-05-07T15:53:08;18.70;99.90
12223;DHT22;6174;49.058;8.524;2023-05-07T15:55:35;18.70;99.90
12223;DHT22;6174;49.058;8.524;2023-05-07T15:58:03;18.80;99.90
12223;DHT22;6174;49.058;8.524;2023-05-07T16:00:31;18.80;99.90
12223;DHT22;6174;49.058;8.524;2023-05-07T16:03:00;18.90;99.90
12223;DHT22;6174;49.058;8.524;2023-05-07T16:05:27;18.80;99.90
12223;DHT22;6174;49.058;8.524;2023-05-07T16:07:54;18.80;99.90
12223;DHT22;6174;49.058;8.524;2023-05-07T16:10:22;18.80;99.90
12223;DHT22;6174;49.058;8.524;2023-05-07T16:12:49;18.90;99.90
12223;DHT22;6174;49.058;8.524;2023-05-07T16:15:17;18.80;99.90
12223;DHT22;6174;49.058;8.524;2023-05-07T16:17:45;18.80;99.90
12223;DHT22;6174;49.058;8.524;2023-05-07T16:20:13;18.60;99.90
12223;DHT22;6174;49.058;8.524;2023-05-07T16:22:39;18.60;99.90
12223;DHT22;6174;49.058;8.524;2023-05-07T16:25:07;18.50;99.90
12223;DHT22;6174;49.058;8.524;2023-05-07T16:27:34;18.40;99.90
12223;DHT22;6174;49.058;8.524;2023-05-07T16:30:01;18.40;99.90
12223;DHT22;6174;49.058;8.524;2023-05-07T16:32:29;18.30;99.90
12223;DHT22;6174;49.058;8.524;2023-05-07T16:34:56;18.30;99.90
12223;DHT22;6174;49.058;8.524;2023-05-07T16:37:22;18.10;99.90
12223;DHT22;6174;49.058;8.524;2023-05-07T16:39:49;18.20;99.90
12223;DHT22;6174;49.058;8.524;2023-05-07T16:42:16;18.00;99.90
12223;DHT22;6174;49.058;8.524;2023-05-07T16:44:43;17.90;99.90
12223;DHT22;6174;49.058;8.524;2023-05-07T16:47:09;17.80;99.90
12223;DHT22;6174;49.058;8.524;2023-05-07T16:49:37;17.80;99.90
12223;DHT22;6174;49.058;8.524;2023-05-07T16:52:04;17.80;99.90
12223;DHT22;6174;49.058;8.524;2023-05-07T16:54:31;17.80;99.90
12223;DHT22;6174;49.058;8.524;2023-05-07T16:56:58;17.70;99.90
12223;DHT22;6174;49.058;8.524;2023-05-07T16:59:25;17.60;99.90
12223;DHT22;6174;49.058;8.524;2023-05-07T17:01:55;17.70;99.90
12223;DHT22;6174;49.058;8.524;2023-05-07T17:04:22;17.60;99.90
12223;DHT22;6174;49.058;8.524;2023-05-07T17:06:51;17.60;99.90
12223;DHT22;6174;49.058;8.524;2023-05-07T17:09:18;17.60;99.90
12223;DHT22;6174;49.058;8.524;2023-05-07T17:11:44;17.50;99.90
12223;DHT22;6174;49.058;8.524;2023-05-07T17:14:11;17.20;99.90
12223;DHT22;6174;49.058;8.524;2023-05-07T17:16:38;17.20;99.90
12223;DHT22;6174;49.058;8.524;2023-05-07T17:19:05;17.20;99.90
12223;DHT22;6174;49.058;8.524;2023-05-07T17:21:31;17.20;99.90
12223;DHT22;6174;49.058;8.524;2023-05-07T17:24:00;17.20;99.90
12223;DHT22;6174;49.058;8.524;2023-05-07T17:26:26;17.10;99.90
12223;DHT22;6174;49.058;8.524;2023-05-07T17:28:53;17.10;99.90
12223;DHT22;6174;49.058;8.524;2023-05-07T17:31:20;17.10;99.90
12223;DHT22;6174;49.058;8.524;2023-05-07T17:33:46;17.00;99.90
12223;DHT22;6174;49.058;8.524;2023-05-07T17:36:13;17.00;99.90
12223;DHT22;6174;49.058;8.524;2023-05-07T17:38:40;16.90;99.90
12223;DHT22;6174;49.058;8.524;2023-05-07T17:41:08;16.90;99.90
12223;DHT22;6174;49.058;8.524;2023-05-07T17:43:35;16.80;99.90
12223;DHT22;6174;49.058;8.524;2023-05-07T17:46:02;16.80;99.90
12223;DHT22;6174;49.058;8.524;2023-05-07T17:48:28;16.80;99.90
12223;DHT22;6174;49.058;8.524;2023-05-07T17:51:00;16.70;99.90
12223;DHT22;6174;49.058;8.524;2023-05-07T17:53:29;16.60;99.90
12223;DHT22;6174;49.058;8.524;2023-05-07T17:55:56;16.60;99.90
12223;DHT22;6174;49.058;8.524;2023-05-07T17:58:24;16.60;99.90
12223;DHT22;6174;49.058;8.524;2023-05-07T18:00:52;16.50;99.90
12223;DHT22;6174;49.058;8.524;2023-05-07T18:03:19;16.50;99.90
12223;DHT22;6174;49.058;8.524;2023-05-07T18:05:46;16.50;99.90
12223;DHT22;6174;49.058;8.524;2023-05-07T18:08:12;16.50;99.90
12223;DHT22;6174;49.058;8.524;2023-05-07T18:10:39;16.50;99.90
12223;DHT22;6174;49.058;8.524;2023-05-07T18:13:06;16.50;99.90
12223;DHT22;6174;49.058;8.524;2023-05-07T18:15:34;16.40;99.90
12223;DHT22;6174;49.058;8.524;2023-05-07T18:18:01;16.40;99.90
12223;DHT22;6174;49.058;8.524;2023-05-07T18:20:27;16.40;99.90
12223;DHT22;6174;49.058;8.524;2023-05-07T18:22:54;16.40;99.90
12223;DHT22;6174;49.058;8.524;2023-05-07T18:25:21;16.40;99.90
12223;DHT22;6174;49.058;8.524;2023-05-07T18:27:48;16.40;99.90
12223;DHT22;6174;49.058;8.524;2023-05-07T18:30:15;16.40;99.90
12223;DHT22;6174;49.058;8.524;2023-05-07T18:32:43;16.40;99.90
12223;DHT22;6174;49.058;8.524;2023-05-07T18:35:09;16.40;99.90
12223;DHT22;6174;49.058;8.524;2023-05-07T18:37:36;16.30;99.90
12223;DHT22;6174;49.058;8.524;2023-05-07T18:40:04;16.30;99.90
12223;DHT22;6174;49.058;8.524;2023-05-07T18:42:31;16.30;99.90
12223;DHT22;6174;49.058;8.524;2023-05-07T18:44:57;16.20;99.90
12223;DHT22;6174;49.058;8.524;2023-05-07T18:47:24;16.20;99.90
12223;DHT22;6174;49.058;8.524;2023-05-07T18:49:52;16.20;99.90
12223;DHT22;6174;49.058;8.524;2023-05-07T18:52:19;16.10;99.90
12223;DHT22;6174;49.058;8.524;2023-05-07T18:54:46;16.10;99.90
12223;DHT22;6174;49.058;8.524;2023-05-07T18:57:13;16.10;99.90
12223;DHT22;6174;49.058;8.524;2023-05-07T18:59:41;16.10;99.90
12223;DHT22;6174;49.058;8.524;2023-05-07T19:02:07;16.10;99.90
12223;DHT22;6174;49.058;8.524;2023-05-07T19:04:34;16.10;99.90
12223;DHT22;6174;49.058;8.524;2023-05-07T19:07:03;16.10;99.90
12223;DHT22;6174;49.058;8.524;2023-05-07T19:09:29;16.00;99.90
12223;DHT22;6174;49.058;8.524;2023-05-07T19:11:57;16.00;99.90
12223;DHT22;6174;49.058;8.524;2023-05-07T19:14:23;15.90;99.90
12223;DHT22;6174;49.058;8.524;2023-05-07T19:16:50;15.90;99.90
12223;DHT22;6174;49.058;8.524;2023-05-07T19:19:17;15.90;99.90
12223;DHT22;6174;49.058;8.524;2023-05-07T19:21:44;15.90;99.90
12223;DHT22;6174;49.058;8.524;2023-05-07T19:24:12;15.90;99.90
12223;DHT22;6174;49.058;8.524;2023-05-07T19:26:39;15.90;99.90
12223;DHT22;6174;49.058;8.524;2023-05-07T19:29:05;16.00;99.90
12223;DHT22;6174;49.058;8.524;2023-05-07T19:31:32;16.00;99.90
12223;DHT22;6174;49.058;8.524;2023-05-07T19:33:59;16.00;99.90
12223;DHT22;6174;49.058;8.524;2023-05-07T19:36:26;16.10;99.90
12223;DHT22;6174;49.058;8.524;2023-05-07T19:38:52;16.10;99.90
12223;DHT22;6174;49.058;8.524;2023-05-07T19:41:21;16.00;99.90
12223;DHT22;6174;49.058;8.524;2023-05-07T19:43:48;16.00;99.90
12223;DHT22;6174;49.058;8.524;2023-05-07T19:46:14;16.00;99.90
12223;DHT22;6174;49.058;8.524;2023-05-07T19:48:42;16.00;99.90
12223;DHT22;6174;49.058;8.524;2023-05-07T19:51:09;15.90;99.90
12223;DHT22;6174;49.058;8.524;2023-05-07T19:53:35;15.90;99.90
12223;DHT22;6174;49.058;8.524;2023-05-07T19:56:03;15.90;99.90
12223;DHT22;6174;49.058;8.524;2023-05-07T19:58:31;15.90;99.90
12223;DHT22;6174;49.058;8.524;2023-05-07T20:00:58;15.90;99.90
12223;DHT22;6174;49.058;8.524;2023-05-07T20:03:26;16.00;99.90
12223;DHT22;6174;49.058;8.524;2023-05-07T20:05:53;16.00;99.90
12223;DHT22;6174;49.058;8.524;2023-05-07T20:08:20;16.00;99.90
12223;DHT22;6174;49.058;8.524;2023-05-07T20:10:47;16.00;99.90
12223;DHT22;6174;49.058;8.524;2023-05-07T20:13:13;16.00;99.90
12223;DHT22;6174;49.058;8.524;2023-05-07T20:15:42;16.00;99.90
12223;DHT22;6174;49.058;8.524;2023-05-07T20:18:09;16.00;99.90
12223;DHT22;6174;49.058;8.524;2023-05-07T20:20:36;16.00;99.90
12223;DHT22;6174;49.058;8.524;2023-05-07T20:23:02;16.00;99.90
12223;DHT22;6174;49.058;8.524;2023-05-07T20:25:29;16.00;99.90
12223;DHT22;6174;49.058;8.524;2023-05-07T20:27:56;16.00;99.90
12223;DHT22;6174;49.058;8.524;2023-05-07T20:30:22;16.00;99.90
12223;DHT22;6174;49.058;8.524;2023-05-07T20:32:50;16.00;99.90
12223;DHT22;6174;49.058;8.524;2023-05-07T20:35:17;16.00;99.90
12223;DHT22;6174;49.058;8.524;2023-05-07T20:37:44;16.00;99.90
12223;DHT22;6174;49.058;8.524;2023-05-07T20:40:11;15.90;99.90
12223;DHT22;6174;49.058;8.524;2023-05-07T20:42:38;15.90;99.90
12223;DHT22;6174;49.058;8.524;2023-05-07T20:45:05;15.90;99.90
12223;DHT22;6174;49.058;8.524;2023-05-07T20:47:32;15.80;99.90
12223;DHT22;6174;49.058;8.524;2023-05-07T20:50:01;15.90;99.90
12223;DHT22;6174;49.058;8.524;2023-05-07T20:52:27;15.90;99.90
12223;DHT22;6174;49.058;8.524;2023-05-07T20:54:54;15.80;99.90
12223;DHT22;6174;49.058;8.524;2023-05-07T20:57:21;15.80;99.90
12223;DHT22;6174;49.058;8.524;2023-05-07T20:59:47;15.80;99.90
12223;DHT22;6174;49.058;8.524;2023-05-07T21:02:14;15.80;99.90
12223;DHT22;6174;49.058;8.524;2023-05-07T21:04:41;15.80;99.90
12223;DHT22;6174;49.058;8.524;2023-05-07T21:07:09;15.80;99.90
12223;DHT22;6174;49.058;8.524;2023-05-07T21:09:36;15.80;99.90
12223;DHT22;6174;49.058;8.524;2023-05-07T21:12:03;15.80;99.90
12223;DHT22;6174;49.058;8.524;2023-05-07T21:14:30;15.90;99.90
12223;DHT22;6174;49.058;8.524;2023-05-07T21:16:57;15.90;99.90
12223;DHT22;6174;49.058;8.524;2023-05-07T21:19:24;15.90;99.90
12223;DHT22;6174;49.058;8.524;2023-05-07T21:21:51;15.80;99.90
12223;DHT22;6174;49.058;8.524;2023-05-07T21:24:23;15.80;99.90
12223;DHT22;6174;49.058;8.524;2023-05-07T21:26:52;15.80;99.90
12223;DHT22;6174;49.058;8.524;2023-05-07T21:29:19;15.80;99.90
12223;DHT22;6174;49.058;8.524;2023-05-07T21:31:46;15.80;99.90
12223;DHT22;6174;49.058;8.524;2023-05-07T21:34:13;15.80;99.90
12223;DHT22;6174;49.058;8.524;2023-05-07T21:36:40;15.80;99.90
12223;DHT22;6174;49.058;8.524;2023-05-07T21:39:06;15.80;99.90
12223;DHT22;6174;49.058;8.524;2023-05-07T21:41:34;15.80;99.90
12223;DHT22;6174;49.058;8.524;2023-05-07T21:44:01;15.80;99.90
12223;DHT22;6174;49.058;8.524;2023-05-07T21:46:28;15.70;99.90
12223;DHT22;6174;49.058;8.524;2023-05-07T21:48:55;15.60;99.90